Time;durP1;ratioP1;P1;durP2;ratioP2;P2;SDS_P1;SDS_P2;PMS_P1;PMS_P2;Temp;Humidity;BMP_temperature;BMP_pressure;BME280_temperature;BME280_humidity;BME280_pressure;Samples;Min_cycle;Max_cycle;Signal;HPM_P1;HPM_P2
2021/10/05 00:01:28;;;;;;;;;;;7.00;43.80;;;;;;4315327;33;19967;-38
2021/10/05 00:03:54;;;;;;;;;;;7.00;43.80;;;;;;4329045;33;20415;-38
2021/10/05 00:06:21;;;;;;;;;;;7.00;43.90;;;;;;4328506;33;19994;-38
2021/10/05 00:08:47;;;;;;;;;;;6.90;43.90;;;;;;4316496;33;19963;-37
2021/10/05 00:11:14;;;;;;;;;;;6.90;43.90;;;;;;4298885;33;19988;-39
2021/10/05 00:13:40;;;;;;;;;;;6.90;44.00;;;;;;4299158;33;20024;-38
2021/10/05 00:16:07;;;;;;;;;;;6.90;43.90;;;;;;4299117;33;20074;-38
2021/10/05 00:18:35;;;;;;;;;;;6.90;44.00;;;;;;4299198;33;19979;-38
2021/10/05 00:21:02;;;;;;;;;;;6.90;44.00;;;;;;4299330;33;20376;-37
2021/10/05 00:23:29;;;;;;;;;;;6.90;44.00;;;;;;4299438;33;20006;-38
2021/10/05 00:25:55;;;;;;;;;;;6.80;44.00;;;;;;4323902;33;19986;-37
2021/10/05 00:28:21;;;;;;;;;;;6.80;44.00;;;;;;4328317;33;19978;-37
2021/10/05 00:30:47;;;;;;;;;;;6.80;44.10;;;;;;4328456;33;19967;-38
2021/10/05 00:33:13;;;;;;;;;;;6.70;44.10;;;;;;4328008;33;20505;-37
2021/10/05 00:35:39;;;;;;;;;;;6.80;44.20;;;;;;4327861;33;20065;-37
2021/10/05 00:38:06;;;;;;;;;;;6.70;44.20;;;;;;4327802;33;20402;-37
2021/10/05 00:40:32;;;;;;;;;;;6.70;44.30;;;;;;4327839;33;19994;-37
2021/10/05 00:42:58;;;;;;;;;;;6.70;44.30;;;;;;4341619;33;20453;-38
2021/10/05 00:45:24;;;;;;;;;;;6.70;44.40;;;;;;4346356;32;19962;-38
2021/10/05 00:47:50;;;;;;;;;;;6.70;44.50;;;;;;4360127;32;19971;-37
2021/10/05 00:50:17;;;;;;;;;;;6.60;44.50;;;;;;4360147;32;20459;-38
2021/10/05 00:52:43;;;;;;;;;;;6.60;44.50;;;;;;4360092;32;19966;-38
2021/10/05 00:55:10;;;;;;;;;;;6.60;44.70;;;;;;4359851;32;20051;-38
2021/10/05 00:57:37;;;;;;;;;;;6.60;44.70;;;;;;4359598;32;20047;-39
2021/10/05 01:00:04;;;;;;;;;;;6.60;44.70;;;;;;4359666;32;20059;-38
2021/10/05 01:02:30;;;;;;;;;;;6.50;44.70;;;;;;4359665;32;20390;-37
2021/10/05 01:04:56;;;;;;;;;;;6.60;44.80;;;;;;4359490;32;19962;-38
2021/10/05 01:07:22;;;;;;;;;;;6.50;44.70;;;;;;4359549;32;19973;-38
2021/10/05 01:09:49;;;;;;;;;;;6.50;44.70;;;;;;4359790;32;19969;-38
2021/10/05 01:12:15;;;;;;;;;;;6.50;44.80;;;;;;4357359;32;20067;-38
2021/10/05 01:14:41;;;;;;;;;;;6.50;44.80;;;;;;4359317;32;20013;-38
2021/10/05 01:17:08;;;;;;;;;;;6.50;44.90;;;;;;4366043;32;19966;-38
2021/10/05 01:19:34;;;;;;;;;;;6.50;44.90;;;;;;4374602;32;20049;-39
2021/10/05 01:22:00;;;;;;;;;;;6.40;44.90;;;;;;4374883;32;19982;-38
2021/10/05 01:24:26;;;;;;;;;;;6.40;44.90;;;;;;4374730;32;19966;-39
2021/10/05 01:26:54;;;;;;;;;;;6.40;45.00;;;;;;4374299;32;19971;-38
2021/10/05 01:29:21;;;;;;;;;;;6.40;45.10;;;;;;4374293;32;20407;-39
2021/10/05 01:31:50;;;;;;;;;;;6.40;45.00;;;;;;4374467;32;19966;-38
2021/10/05 01:34:16;;;;;;;;;;;6.40;45.00;;;;;;4374312;32;19997;-39
2021/10/05 01:36:42;;;;;;;;;;;6.40;45.00;;;;;;4374284;32;19986;-38
2021/10/05 01:39:36;;;;;;;;;;;6.40;44.90;;;;;;4374277;32;19977;-38
2021/10/05 01:42:06;;;;;;;;;;;6.50;44.90;;;;;;4374503;32;20067;-38
2021/10/05 01:44:33;;;;;;;;;;;6.50;44.80;;;;;;4374207;32;19980;-37
2021/10/05 01:47:01;;;;;;;;;;;6.50;44.70;;;;;;4362944;32;19970;-38
2021/10/05 01:49:27;;;;;;;;;;;6.50;44.70;;;;;;4345085;32;19974;-37
2021/10/05 01:51:53;;;;;;;;;;;6.40;44.80;;;;;;4359385;32;20418;-35
2021/10/05 01:54:19;;;;;;;;;;;6.40;44.90;;;;;;4359375;32;19990;-39
2021/10/05 01:56:46;;;;;;;;;;;6.30;45.00;;;;;;4359201;32;19990;-39
2021/10/05 01:59:12;;;;;;;;;;;6.30;45.10;;;;;;4358700;32;20393;-39
2021/10/05 02:01:41;;;;;;;;;;;6.30;45.10;;;;;;4359100;32;19970;-37
2021/10/05 02:04:08;;;;;;;;;;;6.30;45.10;;;;;;4358742;32;19974;-38
2021/10/05 02:06:34;;;;;;;;;;;6.30;45.10;;;;;;4359038;32;19966;-37
2021/10/05 02:09:01;;;;;;;;;;;6.30;45.20;;;;;;4358895;32;19966;-38
2021/10/05 02:11:27;;;;;;;;;;;6.20;45.20;;;;;;4358657;32;19958;-37
2021/10/05 02:13:53;;;;;;;;;;;6.20;45.20;;;;;;4359082;32;19971;-37
2021/10/05 02:16:19;;;;;;;;;;;6.20;45.30;;;;;;4358741;32;20386;-38
2021/10/05 02:18:48;;;;;;;;;;;6.20;45.40;;;;;;4358953;32;19970;-37
2021/10/05 02:21:19;;;;;;;;;;;6.20;45.60;;;;;;4341073;32;20063;-38
2021/10/05 02:26:31;;;;;;;;;;;6.10;45.70;;;;;;4341334;33;20047;-38
2021/10/05 02:28:57;;;;;;;;;;;6.10;45.90;;;;;;4329646;33;19963;-38
2021/10/05 02:31:24;;;;;;;;;;;6.10;46.00;;;;;;4311980;33;19967;-39
2021/10/05 02:33:50;;;;;;;;;;;6.00;46.20;;;;;;4312085;33;19987;-39
2021/10/05 02:36:16;;;;;;;;;;;6.00;46.30;;;;;;4311745;33;20456;-37
2021/10/05 02:38:42;;;;;;;;;;;6.00;46.30;;;;;;4311454;33;20380;-39
2021/10/05 02:41:09;;;;;;;;;;;5.90;46.50;;;;;;4311776;33;20046;-40
2021/10/05 02:43:35;;;;;;;;;;;5.90;46.60;;;;;;4311760;33;19971;-39
2021/10/05 02:46:01;;;;;;;;;;;5.90;46.70;;;;;;4304538;33;19970;-39
2021/10/05 02:48:27;;;;;;;;;;;5.90;46.90;;;;;;4326209;33;19971;-35
2021/10/05 02:50:53;;;;;;;;;;;5.90;46.90;;;;;;4327152;33;20034;-39
2021/10/05 02:53:19;;;;;;;;;;;5.90;46.90;;;;;;4326551;33;20046;-39
2021/10/05 02:55:47;;;;;;;;;;;6.00;46.90;;;;;;4326336;33;20439;-40
2021/10/05 02:58:14;;;;;;;;;;;6.00;46.80;;;;;;4326151;33;19971;-38
2021/10/05 03:00:41;;;;;;;;;;;6.10;46.90;;;;;;4326352;33;19967;-39
2021/10/05 03:03:07;;;;;;;;;;;6.10;47.00;;;;;;4363753;32;20458;-39
2021/10/05 03:05:33;;;;;;;;;;;6.10;47.10;;;;;;4359362;32;19986;-39
2021/10/05 03:08:00;;;;;;;;;;;6.10;47.30;;;;;;4373339;32;19982;-38
2021/10/05 03:10:26;;;;;;;;;;;6.10;47.40;;;;;;4373343;32;20390;-39
2021/10/05 03:12:52;;;;;;;;;;;6.10;47.40;;;;;;4373295;32;20399;-39
2021/10/05 03:15:18;;;;;;;;;;;6.20;47.20;;;;;;4373097;32;19990;-38
2021/10/05 03:17:44;;;;;;;;;;;6.30;47.20;;;;;;4372881;32;19969;-38
2021/10/05 03:20:11;;;;;;;;;;;6.30;47.20;;;;;;4373146;32;19974;-38
2021/10/05 03:22:37;;;;;;;;;;;6.40;47.20;;;;;;4372960;32;19970;-38
2021/10/05 03:25:03;;;;;;;;;;;6.40;47.20;;;;;;4372818;32;20423;-37
2021/10/05 03:27:31;;;;;;;;;;;6.50;47.30;;;;;;4373176;32;20070;-38
2021/10/05 03:29:58;;;;;;;;;;;6.50;47.40;;;;;;4373212;32;20083;-39
2021/10/05 03:32:24;;;;;;;;;;;6.50;47.40;;;;;;4372759;32;20391;-37
2021/10/05 03:34:50;;;;;;;;;;;6.60;47.40;;;;;;4372622;32;19950;-37
2021/10/05 03:37:16;;;;;;;;;;;6.70;47.40;;;;;;4375465;32;19997;-39
2021/10/05 03:39:43;;;;;;;;;;;6.90;47.50;;;;;;4375234;32;19954;-38
2021/10/05 03:42:09;;;;;;;;;;;7.00;47.30;;;;;;4375595;32;19961;-38
2021/10/05 03:44:35;;;;;;;;;;;7.10;47.10;;;;;;4375787;32;20024;-38
2021/10/05 03:47:01;;;;;;;;;;;7.30;47.00;;;;;;4364478;32;20029;-37
2021/10/05 03:49:27;;;;;;;;;;;7.30;46.70;;;;;;4360992;32;20487;-39
2021/10/05 03:51:54;;;;;;;;;;;7.50;46.70;;;;;;4360898;32;19975;-38
2021/10/05 03:54:20;;;;;;;;;;;7.70;46.50;;;;;;4360253;32;20059;-38
2021/10/05 03:56:47;;;;;;;;;;;7.80;46.20;;;;;;4360192;32;20054;-38
2021/10/05 03:59:15;;;;;;;;;;;8.10;45.90;;;;;;4360028;32;20049;-38
2021/10/05 04:01:44;;;;;;;;;;;8.30;45.50;;;;;;4330805;33;20049;-39
2021/10/05 04:04:11;;;;;;;;;;;8.50;45.20;;;;;;4342911;33;20100;-39
2021/10/05 04:06:37;;;;;;;;;;;8.70;44.80;;;;;;4342620;33;20432;-38
2021/10/05 04:09:05;;;;;;;;;;;9.00;44.50;;;;;;4330713;33;19973;-37
2021/10/05 04:11:35;;;;;;;;;;;9.20;44.00;;;;;;4343289;33;20048;-36
2021/10/05 04:14:01;;;;;;;;;;;9.40;43.60;;;;;;4343191;33;20455;-39
2021/10/05 04:16:28;;;;;;;;;;;9.50;43.00;;;;;;4343262;33;20052;-38
2021/10/05 04:18:54;;;;;;;;;;;9.60;43.00;;;;;;4342657;33;19981;-37
2021/10/05 04:21:20;;;;;;;;;;;9.80;42.70;;;;;;4342870;33;20021;-38
2021/10/05 04:23:46;;;;;;;;;;;9.90;42.60;;;;;;4342768;33;20821;-38
2021/10/05 04:26:13;;;;;;;;;;;10.10;42.50;;;;;;4342838;33;20052;-39
2021/10/05 04:28:39;;;;;;;;;;;10.10;42.30;;;;;;4313111;33;19971;-38
2021/10/05 04:31:05;;;;;;;;;;;10.30;42.00;;;;;;4313342;33;20103;-38
2021/10/05 04:33:31;;;;;;;;;;;10.40;42.10;;;;;;4313539;33;19995;-39
2021/10/05 04:35:57;;;;;;;;;;;10.60;41.80;;;;;;4313185;33;20054;-39
2021/10/05 04:38:24;;;;;;;;;;;10.80;41.60;;;;;;4315696;33;19986;-38
2021/10/05 04:40:50;;;;;;;;;;;11.10;41.60;;;;;;4327427;33;19982;-38
2021/10/05 04:43:16;;;;;;;;;;;11.40;41.30;;;;;;4327499;33;20447;-38
2021/10/05 04:45:44;;;;;;;;;;;11.80;40.40;;;;;;4324923;33;20069;-38
2021/10/05 04:48:10;;;;;;;;;;;12.20;40.00;;;;;;4313058;33;19979;-37
2021/10/05 04:50:36;;;;;;;;;;;12.60;39.30;;;;;;4312923;33;19967;-37
2021/10/05 04:53:03;;;;;;;;;;;13.00;39.00;;;;;;4313327;33;19972;-40
2021/10/05 04:55:29;;;;;;;;;;;13.50;38.90;;;;;;4312767;33;19986;-40
2021/10/05 04:57:57;;;;;;;;;;;13.90;38.00;;;;;;4312775;33;19987;-39
2021/10/05 05:00:23;;;;;;;;;;;14.40;37.70;;;;;;4348230;32;19998;-39
2021/10/05 05:02:49;;;;;;;;;;;14.80;36.10;;;;;;4356844;32;20081;-39
2021/10/05 05:05:16;;;;;;;;;;;15.30;35.40;;;;;;4357405;32;19974;-39
2021/10/05 05:07:42;;;;;;;;;;;15.70;34.70;;;;;;4356948;32;20005;-39
2021/10/05 05:10:08;;;;;;;;;;;16.10;34.40;;;;;;4357007;32;20042;-37
2021/10/05 05:12:35;;;;;;;;;;;16.50;33.60;;;;;;4357623;32;20058;-39
2021/10/05 05:15:02;;;;;;;;;;;16.80;33.30;;;;;;4357453;32;20068;-39
2021/10/05 05:17:29;;;;;;;;;;;17.20;32.90;;;;;;4356421;32;20398;-38
2021/10/05 05:19:55;;;;;;;;;;;17.50;32.90;;;;;;4344600;32;20471;-38
2021/10/05 05:22:21;;;;;;;;;;;17.80;32.70;;;;;;4356822;32;19966;-38
2021/10/05 05:24:47;;;;;;;;;;;18.20;31.80;;;;;;4356922;32;19986;-37
2021/10/05 05:27:13;;;;;;;;;;;18.50;31.00;;;;;;4356729;32;19982;-38
2021/10/05 05:29:40;;;;;;;;;;;18.90;31.10;;;;;;4356656;32;20056;-38
2021/10/05 05:32:06;;;;;;;;;;;19.20;30.60;;;;;;4357439;32;20346;-38
2021/10/05 05:34:32;;;;;;;;;;;19.50;29.70;;;;;;4359123;32;19990;-38
2021/10/05 05:36:59;;;;;;;;;;;19.90;29.30;;;;;;4359260;32;20042;-38
2021/10/05 05:39:25;;;;;;;;;;;20.20;28.30;;;;;;4358869;32;20482;-37
2021/10/05 05:41:51;;;;;;;;;;;20.70;27.60;;;;;;4358849;32;20047;-37
2021/10/05 05:44:17;;;;;;;;;;;21.10;28.00;;;;;;4358862;32;19974;-36
2021/10/05 05:46:43;;;;;;;;;;;21.40;27.70;;;;;;4354050;32;20528;-37
2021/10/05 05:49:10;;;;;;;;;;;21.60;27.40;;;;;;4373503;32;19980;-37
2021/10/05 05:51:36;;;;;;;;;;;21.80;26.80;;;;;;4374166;32;19966;-37
2021/10/05 05:54:03;;;;;;;;;;;22.10;26.60;;;;;;4373545;32;19991;-36
2021/10/05 05:56:29;;;;;;;;;;;22.40;26.50;;;;;;4373187;32;20376;-37
2021/10/05 05:58:57;;;;;;;;;;;22.70;25.80;;;;;;4372526;32;19974;-37
2021/10/05 06:01:23;;;;;;;;;;;22.90;25.90;;;;;;4372844;32;20082;-37
2021/10/05 06:03:50;;;;;;;;;;;23.00;25.60;;;;;;4373197;32;19963;-37
2021/10/05 06:06:17;;;;;;;;;;;23.10;25.50;;;;;;4373463;32;19996;-37
2021/10/05 06:08:43;;;;;;;;;;;23.20;25.50;;;;;;4373764;32;20482;-38
2021/10/05 06:11:09;;;;;;;;;;;23.40;25.70;;;;;;4373786;32;19974;-38
2021/10/05 06:13:36;;;;;;;;;;;23.50;25.50;;;;;;4373872;32;19989;-38
2021/10/05 06:16:02;;;;;;;;;;;23.50;24.70;;;;;;4373148;32;19997;-37
2021/10/05 06:18:28;;;;;;;;;;;23.60;24.70;;;;;;4372803;32;20454;-37
2021/10/05 06:20:55;;;;;;;;;;;23.70;24.70;;;;;;4373888;32;19965;-38
2021/10/05 06:23:21;;;;;;;;;;;23.70;24.50;;;;;;4359678;32;19954;-38
2021/10/05 06:25:47;;;;;;;;;;;23.70;24.80;;;;;;4373449;32;19970;-37
2021/10/05 06:28:13;;;;;;;;;;;23.70;24.70;;;;;;4359438;32;20029;-38
2021/10/05 06:30:40;;;;;;;;;;;23.80;24.60;;;;;;4373250;32;19958;-36
2021/10/05 06:33:06;;;;;;;;;;;23.90;24.50;;;;;;4373534;32;19966;-37
2021/10/05 06:35:32;;;;;;;;;;;23.90;24.40;;;;;;4373316;32;19981;-37
2021/10/05 06:37:59;;;;;;;;;;;23.80;24.00;;;;;;4372795;32;19977;-38
2021/10/05 06:40:27;;;;;;;;;;;23.70;24.10;;;;;;4372829;32;20355;-37
2021/10/05 06:42:53;;;;;;;;;;;23.60;24.00;;;;;;4372896;32;19992;-38
2021/10/05 06:45:19;;;;;;;;;;;23.60;24.20;;;;;;4372246;32;20506;-38
2021/10/05 06:47:46;;;;;;;;;;;23.50;24.10;;;;;;4344463;32;20007;-37
2021/10/05 06:50:13;;;;;;;;;;;23.40;24.10;;;;;;4344477;32;19982;-38
2021/10/05 06:52:39;;;;;;;;;;;23.40;23.50;;;;;;4358736;32;20017;-37
2021/10/05 06:55:05;;;;;;;;;;;23.70;23.50;;;;;;4344479;32;20038;-38
2021/10/05 06:57:31;;;;;;;;;;;24.00;23.90;;;;;;4358201;32;20507;-38
2021/10/05 06:59:58;;;;;;;;;;;24.30;23.70;;;;;;4358412;32;19959;-36
2021/10/05 07:02:24;;;;;;;;;;;24.40;23.70;;;;;;4358309;32;20054;-38
2021/10/05 07:04:50;;;;;;;;;;;24.40;23.60;;;;;;4357927;32;20074;-39
2021/10/05 07:07:16;;;;;;;;;;;24.40;23.60;;;;;;4358217;32;20078;-37
2021/10/05 07:09:43;;;;;;;;;;;24.20;23.40;;;;;;4357991;32;19962;-38
2021/10/05 07:12:09;;;;;;;;;;;24.00;23.30;;;;;;4360942;32;19974;-37
2021/10/05 07:14:35;;;;;;;;;;;23.70;23.30;;;;;;4361150;32;19962;-39
2021/10/05 07:17:01;;;;;;;;;;;23.50;23.50;;;;;;4361267;32;19984;-38
2021/10/05 07:19:28;;;;;;;;;;;23.30;23.70;;;;;;4360785;32;20054;-39
2021/10/05 07:21:55;;;;;;;;;;;23.10;23.60;;;;;;4361316;32;20408;-39
2021/10/05 07:24:21;;;;;;;;;;;22.80;23.30;;;;;;4361346;32;20395;-39
2021/10/05 07:26:47;;;;;;;;;;;22.60;23.60;;;;;;4360696;32;19970;-38
2021/10/05 07:29:14;;;;;;;;;;;22.40;23.70;;;;;;4361296;32;19976;-39
2021/10/05 07:31:40;;;;;;;;;;;22.40;23.80;;;;;;4361016;32;19990;-38
2021/10/05 07:34:06;;;;;;;;;;;22.20;23.70;;;;;;4361039;32;19970;-39
2021/10/05 07:36:33;;;;;;;;;;;22.10;23.80;;;;;;4360702;32;19992;-40
2021/10/05 07:38:59;;;;;;;;;;;22.10;23.80;;;;;;4360759;32;19958;-38
2021/10/05 07:41:27;;;;;;;;;;;22.20;23.90;;;;;;4360653;32;19959;-39
2021/10/05 07:43:53;;;;;;;;;;;22.30;23.90;;;;;;4360726;32;19978;-39
2021/10/05 07:46:21;;;;;;;;;;;22.40;23.80;;;;;;4367916;32;20075;-39
2021/10/05 07:48:47;;;;;;;;;;;22.40;23.90;;;;;;4375751;32;19982;-38
2021/10/05 07:51:13;;;;;;;;;;;22.60;23.80;;;;;;4362082;32;20047;-39
2021/10/05 07:53:40;;;;;;;;;;;22.80;23.70;;;;;;4375723;32;19970;-39
2021/10/05 07:56:07;;;;;;;;;;;23.10;23.60;;;;;;4376020;32;19962;-38
2021/10/05 07:58:36;;;;;;;;;;;23.40;23.50;;;;;;4375655;32;20038;-38
2021/10/05 08:01:03;;;;;;;;;;;23.40;23.30;;;;;;4375649;32;19977;-38
2021/10/05 08:03:29;;;;;;;;;;;23.30;22.80;;;;;;4375305;32;20397;-39
2021/10/05 08:05:55;;;;;;;;;;;23.20;22.80;;;;;;4361374;32;19977;-39
2021/10/05 08:08:21;;;;;;;;;;;22.90;22.50;;;;;;4375277;32;19962;-38
2021/10/05 08:10:48;;;;;;;;;;;22.60;22.80;;;;;;4375381;32;19972;-40
2021/10/05 08:13:14;;;;;;;;;;;22.40;23.00;;;;;;4357930;32;20388;-39
2021/10/05 08:15:40;;;;;;;;;;;22.30;23.00;;;;;;4357613;32;19974;-39
2021/10/05 08:18:06;;;;;;;;;;;22.10;23.10;;;;;;4357455;32;20050;-38
2021/10/05 08:20:33;;;;;;;;;;;22.00;23.10;;;;;;4357072;32;19963;-38
2021/10/05 08:22:59;;;;;;;;;;;21.80;23.10;;;;;;4344645;32;20482;-38
2021/10/05 08:25:25;;;;;;;;;;;21.60;23.20;;;;;;4357820;32;20030;-38
2021/10/05 08:27:51;;;;;;;;;;;21.60;23.30;;;;;;4344635;32;19989;-39
2021/10/05 08:30:18;;;;;;;;;;;21.50;23.10;;;;;;4345153;32;19998;-39
2021/10/05 08:32:45;;;;;;;;;;;21.40;23.40;;;;;;4357478;32;20034;-39
2021/10/05 08:35:12;;;;;;;;;;;21.40;23.50;;;;;;4358201;32;19985;-39
2021/10/05 08:37:40;;;;;;;;;;;21.50;23.50;;;;;;4357608;32;20198;-39
2021/10/05 08:40:07;;;;;;;;;;;21.50;23.40;;;;;;4357238;32;19966;-39
2021/10/05 08:42:33;;;;;;;;;;;21.60;23.40;;;;;;4357187;32;20042;-38
2021/10/05 08:44:59;;;;;;;;;;;21.50;23.30;;;;;;4371332;32;20431;-39
2021/10/05 08:47:25;;;;;;;;;;;21.50;23.40;;;;;;4360876;32;20007;-38
2021/10/05 08:49:51;;;;;;;;;;;21.60;23.50;;;;;;4359682;32;19970;-41
2021/10/05 08:52:18;;;;;;;;;;;21.70;23.40;;;;;;4359874;32;19963;-39
2021/10/05 08:54:44;;;;;;;;;;;22.00;23.50;;;;;;4359662;32;19962;-39
2021/10/05 08:57:10;;;;;;;;;;;22.30;23.30;;;;;;4359581;32;20070;-39
2021/10/05 08:59:36;;;;;;;;;;;22.40;23.20;;;;;;4359730;32;20410;-39
2021/10/05 09:02:13;;;;;;;;;;;22.60;23.10;;;;;;4359552;32;20058;-39
2021/10/05 09:04:43;;;;;;;;;;;22.80;23.00;;;;;;4359512;32;19970;-38
2021/10/05 09:07:28;;;;;;;;;;;22.90;22.80;;;;;;4359487;32;20027;-39
2021/10/05 09:09:56;;;;;;;;;;;22.80;22.70;;;;;;4358887;32;20445;-38
2021/10/05 09:12:26;;;;;;;;;;;22.80;23.00;;;;;;4359703;32;19969;-38
2021/10/05 09:14:53;;;;;;;;;;;22.90;22.80;;;;;;4359514;32;19981;-39
2021/10/05 09:17:23;;;;;;;;;;;22.90;22.90;;;;;;4359374;32;19954;-39
2021/10/05 09:19:50;;;;;;;;;;;22.90;22.80;;;;;;4359022;32;19963;-38
2021/10/05 09:22:22;;;;;;;;;;;22.90;22.80;;;;;;4359324;32;19974;-38
2021/10/05 09:24:49;;;;;;;;;;;22.80;22.80;;;;;;4359085;32;20035;-39
2021/10/05 09:27:16;;;;;;;;;;;22.70;23.50;;;;;;4359151;32;20435;-38
2021/10/05 09:29:42;;;;;;;;;;;22.70;23.10;;;;;;4359452;32;19997;-39
2021/10/05 09:32:13;;;;;;;;;;;22.90;23.10;;;;;;4359400;32;19959;-39
2021/10/05 09:34:44;;;;;;;;;;;22.90;23.00;;;;;;4358616;32;19982;-38
2021/10/05 09:37:12;;;;;;;;;;;23.00;22.90;;;;;;4359240;32;20504;-38
2021/10/05 09:40:03;;;;;;;;;;;22.90;22.90;;;;;;4359323;32;20123;-40
2021/10/05 09:42:40;;;;;;;;;;;23.00;22.80;;;;;;4359386;32;20487;-39
2021/10/05 09:45:10;;;;;;;;;;;22.90;22.90;;;;;;4359205;32;19977;-39
2021/10/05 09:47:37;;;;;;;;;;;23.00;23.10;;;;;;4373799;32;19965;-39
2021/10/05 09:50:33;;;;;;;;;;;23.10;23.00;;;;;;4374198;32;20042;-38
2021/10/05 09:53:10;;;;;;;;;;;23.30;22.90;;;;;;4367463;32;20038;-38
2021/10/05 09:55:41;;;;;;;;;;;23.70;22.80;;;;;;4373923;32;19962;-39
2021/10/05 09:58:07;;;;;;;;;;;24.10;22.60;;;;;;4373860;32;19996;-38
2021/10/05 10:00:36;;;;;;;;;;;24.20;22.40;;;;;;4373844;32;19962;-39
2021/10/05 10:03:08;;;;;;;;;;;24.10;22.20;;;;;;4373896;32;20046;-39
2021/10/05 10:05:40;;;;;;;;;;;23.80;22.20;;;;;;4374217;32;20069;-39
2021/10/05 10:08:07;;;;;;;;;;;23.40;22.20;;;;;;4373489;32;19965;-38
2021/10/05 10:10:35;;;;;;;;;;;23.00;22.40;;;;;;4373897;32;19965;-39
2021/10/05 10:13:12;;;;;;;;;;;22.60;22.60;;;;;;4373852;32;20411;-39
2021/10/05 10:15:39;;;;;;;;;;;22.40;22.60;;;;;;4373272;32;20627;-39
2021/10/05 10:18:16;;;;;;;;;;;22.10;22.90;;;;;;4373077;32;19993;-39
2021/10/05 10:20:44;;;;;;;;;;;22.00;23.10;;;;;;4373559;32;19997;-39
2021/10/05 10:23:23;;;;;;;;;;;22.00;23.20;;;;;;4373688;32;19970;-38
2021/10/05 10:25:56;;;;;;;;;;;22.00;23.30;;;;;;4373597;32;20456;-39
2021/10/05 10:28:30;;;;;;;;;;;21.90;23.20;;;;;;4373538;32;19973;-39
2021/10/05 10:30:59;;;;;;;;;;;21.80;23.20;;;;;;4373802;32;20042;-39
2021/10/05 10:33:25;;;;;;;;;;;21.70;23.30;;;;;;4373310;32;19978;-40
2021/10/05 10:35:57;;;;;;;;;;;21.60;23.30;;;;;;4373725;32;20155;-39
2021/10/05 10:38:25;;;;;;;;;;;21.50;23.50;;;;;;4373587;32;19974;-39
2021/10/05 10:40:51;;;;;;;;;;;21.60;23.60;;;;;;4373524;32;20037;-39
2021/10/05 10:43:19;;;;;;;;;;;21.50;23.50;;;;;;4373358;32;20414;-40
2021/10/05 10:46:02;;;;;;;;;;;21.40;23.60;;;;;;4369591;32;20229;-40
2021/10/05 10:48:29;;;;;;;;;;;21.30;24.10;;;;;;4344212;32;19974;-39
2021/10/05 10:50:57;;;;;;;;;;;21.20;23.70;;;;;;4358594;32;19990;-39
2021/10/05 10:53:35;;;;;;;;;;;21.10;23.90;;;;;;4358191;32;19978;-40
2021/10/05 10:56:01;;;;;;;;;;;21.00;24.00;;;;;;4358044;32;19971;-39
2021/10/05 10:58:41;;;;;;;;;;;20.90;24.10;;;;;;4357692;32;19994;-39
2021/10/05 11:01:16;;;;;;;;;;;20.70;24.00;;;;;;4357896;32;19981;-40
2021/10/05 11:03:42;;;;;;;;;;;20.60;24.00;;;;;;4358021;32;19982;-39
2021/10/05 11:06:13;;;;;;;;;;;20.50;24.30;;;;;;4357975;32;20075;-39
2021/10/05 11:08:39;;;;;;;;;;;20.40;24.40;;;;;;4358216;32;19958;-39
2021/10/05 11:11:06;;;;;;;;;;;20.50;24.60;;;;;;4357829;32;20054;-40
2021/10/05 11:13:32;;;;;;;;;;;20.60;24.60;;;;;;4357793;32;19994;-39
2021/10/05 11:15:58;;;;;;;;;;;20.80;24.50;;;;;;4358021;32;20411;-39
2021/10/05 11:18:24;;;;;;;;;;;20.90;24.40;;;;;;4358139;32;20002;-39
2021/10/05 11:20:56;;;;;;;;;;;21.00;24.40;;;;;;4344075;32;19998;-39
2021/10/05 11:23:24;;;;;;;;;;;21.10;24.20;;;;;;4358573;32;19970;-39
2021/10/05 11:25:54;;;;;;;;;;;21.20;24.20;;;;;;4358061;32;20033;-39
2021/10/05 11:28:31;;;;;;;;;;;21.20;24.10;;;;;;4325596;33;19975;-39
2021/10/05 11:31:02;;;;;;;;;;;21.20;24.20;;;;;;4325618;33;19978;-39
2021/10/05 11:33:30;;;;;;;;;;;21.10;24.10;;;;;;4325961;33;20054;-39
2021/10/05 11:35:58;;;;;;;;;;;21.00;24.20;;;;;;4326326;33;19970;-40
2021/10/05 11:38:35;;;;;;;;;;;20.90;24.30;;;;;;4313244;33;19981;-39
2021/10/05 11:41:04;;;;;;;;;;;20.80;24.40;;;;;;4313462;33;19994;-39
2021/10/05 11:43:38;;;;;;;;;;;20.80;24.50;;;;;;4325743;33;19971;-38
2021/10/05 11:46:14;;;;;;;;;;;20.60;24.60;;;;;;4331049;33;20199;-39
2021/10/05 11:48:54;;;;;;;;;;;20.60;24.80;;;;;;4340723;33;20477;-39
2021/10/05 11:51:21;;;;;;;;;;;20.60;24.70;;;;;;4340089;33;20396;-38
2021/10/05 11:53:48;;;;;;;;;;;20.60;24.60;;;;;;4339834;33;20606;-39
2021/10/05 11:56:19;;;;;;;;;;;20.70;24.70;;;;;;4340460;32;19970;-38
2021/10/05 11:58:55;;;;;;;;;;;20.70;24.80;;;;;;4351451;32;20376;-38
2021/10/05 12:01:27;;;;;;;;;;;20.80;24.80;;;;;;4375146;32;20058;-39
2021/10/05 12:04:06;;;;;;;;;;;20.80;24.90;;;;;;4375414;32;19982;-39
2021/10/05 12:06:35;;;;;;;;;;;20.80;24.80;;;;;;4375350;32;20456;-40
2021/10/05 12:09:02;;;;;;;;;;;20.60;24.80;;;;;;4375302;32;20046;-39
2021/10/05 12:11:44;;;;;;;;;;;20.40;24.90;;;;;;4327859;33;19982;-39
2021/10/05 12:14:11;;;;;;;;;;;20.30;25.00;;;;;;4327992;33;20506;-40
2021/10/05 12:16:41;;;;;;;;;;;20.20;25.10;;;;;;4328029;33;19994;-40
2021/10/05 12:19:07;;;;;;;;;;;20.00;25.40;;;;;;4328322;33;20010;-39
2021/10/05 12:21:34;;;;;;;;;;;19.90;25.60;;;;;;4328375;33;20430;-38
2021/10/05 12:24:01;;;;;;;;;;;19.70;25.60;;;;;;4328440;33;20047;-37
2021/10/05 12:26:27;;;;;;;;;;;19.60;25.60;;;;;;4328574;33;20412;-39
2021/10/05 12:28:55;;;;;;;;;;;19.70;25.80;;;;;;4327750;33;20361;-39
2021/10/05 12:31:21;;;;;;;;;;;19.80;25.90;;;;;;4315837;33;19967;-39
2021/10/05 12:33:55;;;;;;;;;;;20.00;25.80;;;;;;4327834;33;20082;-39
2021/10/05 12:36:22;;;;;;;;;;;20.00;25.80;;;;;;4315662;33;19994;-40
2021/10/05 12:38:50;;;;;;;;;;;20.00;25.70;;;;;;4327642;33;20074;-39
2021/10/05 12:41:16;;;;;;;;;;;20.00;25.40;;;;;;4327785;33;20507;-40
2021/10/05 12:43:44;;;;;;;;;;;20.10;25.10;;;;;;4327675;33;19977;-39
2021/10/05 12:46:19;;;;;;;;;;;20.20;24.90;;;;;;4310068;33;20031;-39
2021/10/05 12:48:47;;;;;;;;;;;20.30;24.10;;;;;;4332930;32;19955;-39
2021/10/05 12:51:17;;;;;;;;;;;20.50;23.80;;;;;;4359660;32;20140;-41
2021/10/05 12:53:44;;;;;;;;;;;20.50;23.70;;;;;;4346096;32;20402;-39
2021/10/05 12:56:11;;;;;;;;;;;20.60;23.60;;;;;;4359901;32;20050;-39
2021/10/05 12:58:37;;;;;;;;;;;20.60;23.50;;;;;;4300631;33;19982;-40
2021/10/05 13:01:04;;;;;;;;;;;20.60;23.50;;;;;;4313103;33;19978;-40
2021/10/05 13:03:32;;;;;;;;;;;20.60;23.40;;;;;;4313109;33;19991;-40
2021/10/05 13:05:58;;;;;;;;;;;20.70;23.50;;;;;;4313118;33;19980;-39
2021/10/05 13:08:24;;;;;;;;;;;20.70;23.60;;;;;;4312329;33;19977;-40
2021/10/05 13:10:50;;;;;;;;;;;20.80;23.40;;;;;;4312937;33;20043;-39
2021/10/05 13:13:17;;;;;;;;;;;20.80;23.20;;;;;;4312448;33;19971;-40
2021/10/05 13:15:44;;;;;;;;;;;20.70;23.20;;;;;;4313159;33;20009;-39
2021/10/05 13:18:10;;;;;;;;;;;20.70;23.30;;;;;;4312525;33;19975;-40
2021/10/05 13:20:37;;;;;;;;;;;20.60;23.30;;;;;;4313080;33;19967;-40
2021/10/05 13:23:03;;;;;;;;;;;20.50;23.40;;;;;;4300209;33;20031;-38
2021/10/05 13:25:29;;;;;;;;;;;20.50;23.60;;;;;;4300988;33;19972;-40
2021/10/05 13:27:56;;;;;;;;;;;20.40;23.60;;;;;;4312881;33;19971;-40
2021/10/05 13:30:22;;;;;;;;;;;20.30;23.40;;;;;;4350260;32;19978;-40
2021/10/05 13:32:48;;;;;;;;;;;20.20;23.40;;;;;;4359665;32;19967;-40
2021/10/05 13:35:14;;;;;;;;;;;20.20;23.50;;;;;;4358763;32;19962;-40
2021/10/05 13:37:41;;;;;;;;;;;20.10;23.60;;;;;;4358968;32;19966;-40
2021/10/05 13:40:08;;;;;;;;;;;20.00;23.70;;;;;;4359076;32;19966;-42
2021/10/05 13:42:35;;;;;;;;;;;19.90;23.80;;;;;;4359259;32;20008;-45
2021/10/05 13:45:02;;;;;;;;;;;19.80;24.00;;;;;;4359375;32;19958;-42
2021/10/05 13:47:28;;;;;;;;;;;19.70;24.10;;;;;;4372622;32;20410;-39
2021/10/05 13:49:54;;;;;;;;;;;19.60;24.20;;;;;;4373862;32;19981;-40
2021/10/05 13:52:20;;;;;;;;;;;19.50;24.30;;;;;;4373827;32;20045;-39
2021/10/05 13:54:46;;;;;;;;;;;19.40;24.30;;;;;;4373186;32;20074;-40
2021/10/05 13:57:13;;;;;;;;;;;19.20;24.40;;;;;;4373587;32;20069;-39
2021/10/05 13:59:39;;;;;;;;;;;19.10;24.60;;;;;;4373619;32;20402;-39
2021/10/05 14:02:05;;;;;;;;;;;19.00;24.90;;;;;;4373386;32;20421;-41
2021/10/05 14:04:31;;;;;;;;;;;18.90;25.10;;;;;;4373546;32;20398;-39
2021/10/05 14:06:58;;;;;;;;;;;18.70;25.30;;;;;;4359678;32;19959;-40
2021/10/05 14:09:24;;;;;;;;;;;18.60;25.60;;;;;;4373403;32;19970;-39
2021/10/05 14:11:50;;;;;;;;;;;18.60;25.80;;;;;;4373363;32;20384;-40
2021/10/05 14:14:16;;;;;;;;;;;18.40;25.90;;;;;;4373404;32;19974;-40
2021/10/05 14:16:42;;;;;;;;;;;18.40;26.10;;;;;;4373158;32;19977;-39
2021/10/05 14:19:09;;;;;;;;;;;18.30;26.20;;;;;;4372819;32;20000;-38
2021/10/05 14:21:35;;;;;;;;;;;18.30;26.50;;;;;;4373360;32;19967;-40
2021/10/05 14:24:01;;;;;;;;;;;18.10;26.60;;;;;;4373233;32;19969;-41
2021/10/05 14:26:27;;;;;;;;;;;18.00;26.90;;;;;;4373237;32;19961;-40